Flight Track Log - Related Links

Times and Time Zones

All times are in EDT time to prevent confusion due to time zone crossing. See the XA-UFK flight status page for this flight to view local times or setup timezone preferences in your user account.


Time Position Orientation Groundspeed Altitude Reporting Facility
EDT Latitude Longitude Course Direction KTS MPH feet Rate Location/Type
Sat 03:23:15 PM 27.1220 -100.3764 355° North  Level FlightAware Approximate
Sat 03:24:15 PM 27.2293 -100.3833 355° North  Level FlightAware Approximate
Sat 03:25:15 PM 27.3361 -100.3980 355° North  Level FlightAware Approximate
Sat 03:26:15 PM 27.4433 -100.4080 355° North  Level FlightAware Approximate
Sat 03:27:15 PM 27.5479 -100.4367 356° North  Level FlightAware Approximate
Sat 03:28:15 PM 27.6555 -100.4352 355° North  Level FlightAware Approximate
Sat 03:29:15 PM 27.7600 -100.4648 356° North  Level FlightAware Approximate
Sat 03:30:15 PM 27.8664 -100.4528 355° North  Level FlightAware Approximate
Sat 03:31:15 PM 27.9706 -100.4837 357° North  Level FlightAware Approximate
Sat 03:32:15 PM 28.0769 -100.5089 360° North  Level FlightAware Approximate
Sat 03:33:15 PM 28.1814 -100.5424 North  Level FlightAware Approximate
Sat 03:34:15 PM 28.2860 -100.5760 20° North  Level FlightAware Approximate
Sat 03:35:15 PM 28.3905 -100.6096 61° Northeast  Level FlightAware Approximate
Sat 03:36:22 PM 28.4372 -100.5119 355° North 418 481 38,000  Level Houston Center
Sat 03:37:22 PM 28.5306 -100.5219 348° North 414 476 38,000  Level Houston Center
Sat 03:38:22 PM 28.6742 -100.5553 341° North 424 488 38,000  Level Houston Center
Sat 03:39:23 PM 28.7842 -100.5978 337° Northwest 424 488 38,000  Level Houston Center
Sat 03:40:22 PM 28.8950 -100.6519 339° North 424 488 38,000  Level Houston Center
Sat 03:41:22 PM 29.0003 -100.6989 340° North 424 488 38,000  Level Houston Center
Sat 03:42:22 PM 29.1119 -100.7467 337° Northwest 418 481 38,000  Level Houston Center
Sat 03:43:22 PM 29.2208 -100.7989 339° North 423 487 38,000  Level Houston Center
Sat 03:44:22 PM 29.3322 -100.8489 338° Northwest 423 487 38,000  Level Houston Center
Sat 03:45:22 PM 29.4414 -100.8992 338° Northwest 423 487 38,000  Level Houston Center
Sat 03:46:22 PM 29.5364 -100.9433 339° North 423 487 38,000  Level Houston Center
Sat 03:47:22 PM 29.6475 -100.9936 338° Northwest 418 481 38,000  Level Houston Center
Sat 03:48:22 PM 29.7544 -101.0439 338° Northwest 418 481 38,000  Level Houston Center
Sat 03:49:22 PM 29.8633 -101.0947 338° Northwest 424 488 38,000  Level Houston Center
Sat 03:50:22 PM 29.9725 -101.1453 338° Northwest 424 488 38,000  Level Houston Center
Sat 03:51:22 PM 30.0814 -101.1961 338° Northwest 424 488 38,000  Level Houston Center
Sat 03:52:22 PM 30.1881 -101.2469 339° North 424 488 38,000  Level Houston Center
Sat 03:53:23 PM 30.3011 -101.2983 338° Northwest 424 488 38,000  Level Houston Center
Sat 03:54:22 PM 30.4100 -101.3494 338° Northwest 424 488 38,000  Level Houston Center
Sat 03:55:22 PM 30.5208 -101.4011 338° Northwest 424 488 38,000  Level Houston Center
Sat 03:56:22 PM 30.6297 -101.4525 338° Northwest 419 482 38,000  Level Houston Center
Sat 03:57:22 PM 30.7383 -101.5042 338° Northwest 419 482 38,000  Level Houston Center
Sat 03:58:22 PM 30.8469 -101.5558 338° Northwest 419 482 38,000  Level Houston Center
Sat 04:00:13 PM 31.0397 -101.6461 340° North 417 480 38,000  Level Fort Worth Center
Sat 04:01:14 PM 31.1489 -101.6922 338° Northwest 417 480 38,000  Level Fort Worth Center
Sat 04:02:12 PM 31.2556 -101.7433 338° Northwest 412 474 38,000  Level Fort Worth Center
Sat 04:03:11 PM 31.3625 -101.7944 337° Northwest 412 474 38,000  Level Fort Worth Center
Sat 04:04:12 PM 31.4672 -101.8458 338° Northwest 412 474 38,000 98 Level Fort Worth Center
Sat 04:05:13 PM 31.5758 -101.8972 337° Northwest 412 474 38,200 446 Climbing Fort Worth Center
Sat 04:06:13 PM 31.6806 -101.9489 336° Northwest 407 468 38,900 595 Climbing Fort Worth Center
Sat 04:07:14 PM 31.7808 -102.0003 338° Northwest 407 468 39,400 496 Climbing Fort Worth Center
Sat 04:08:14 PM 31.8836 -102.0494 339° North 402 463 39,900 303 Climbing Fort Worth Center
Sat 04:09:13 PM 31.9842 -102.0961 336° Northwest 395 455 40,000 50 Climbing Fort Worth Center
Sat 04:10:13 PM 32.0844 -102.1478 337° Northwest 395 455 40,000  Level Fort Worth Center
Sat 04:11:14 PM 32.1969 -102.2053 338° Northwest 389 448 40,000  Level Fort Worth Center
Sat 04:12:14 PM 32.3017 -102.2550 337° Northwest 397 457 40,000  Level Fort Worth Center
Sat 04:13:12 PM 32.3856 -102.2964 337° Northwest 402 463 40,000  Level Fort Worth Center
Sat 04:14:13 PM 32.5083 -102.3572 336° Northwest 421 484 40,000  Level Fort Worth Center
Sat 04:15:13 PM 32.6125 -102.4122 340° North 421 484 40,000  Level Fort Worth Center
Sat 04:16:14 PM 32.7336 -102.4658 337° Northwest 415 478 40,000  Level Fort Worth Center
Sat 04:17:12 PM 32.8400 -102.5189 337° Northwest 415 478 40,000  Level Fort Worth Center
Sat 04:18:12 PM 32.9239 -102.5608 338° Northwest 410 472 40,000  Level Fort Worth Center
Sat 04:19:14 PM 33.0528 -102.6228 335° Northwest 410 472 40,000  Level Fort Worth Center
Sat 04:20:15 PM 33.1589 -102.6811 338° Northwest 410 472 40,000  Level Fort Worth Center
Sat 04:21:12 PM 33.2672 -102.7347 336° Northwest 410 472 40,000  Level Fort Worth Center
Sat 04:22:13 PM 33.3733 -102.7908 339° North 410 472 40,000  Level Fort Worth Center
Sat 04:23:13 PM 33.4675 -102.8339 337° Northwest 405 466 40,000  Level Fort Worth Center
Sat 04:24:38 PM 33.6261 -102.9147 339° North 433 498 40,000  Level Albuquerque Center
Sat 04:25:38 PM 33.7322 -102.9642 338° Northwest 422 486 40,000  Level Albuquerque Center
Sat 04:26:38 PM 33.8406 -103.0158 335° Northwest 416 479 40,000  Level Albuquerque Center
Sat 04:27:38 PM 33.9556 -103.0800 336° Northwest 411 473 40,000  Level Albuquerque Center
Sat 04:28:38 PM 34.0600 -103.1372 338° Northwest 411 473 40,000  Level Albuquerque Center
Sat 04:29:38 PM 34.1703 -103.1919 337° Northwest 411 473 40,000  Level Albuquerque Center
Sat 04:30:38 PM 34.2594 -103.2378 338° Northwest 406 467 40,000  Level Albuquerque Center
Sat 04:31:38 PM 34.3656 -103.2903 337° Northwest 401 461 40,000  Level Albuquerque Center
Sat 04:32:38 PM 34.4697 -103.3431 337° Northwest 401 461 40,000  Level Albuquerque Center
Sat 04:33:38 PM 34.5758 -103.3983 336° Northwest 401 461 40,000  Level Albuquerque Center
Sat 04:34:38 PM 34.6778 -103.4542 338° Northwest 401 461 40,000  Level Albuquerque Center
Sat 04:35:38 PM 34.7839 -103.5072 337° Northwest 401 461 40,000  Level Albuquerque Center
Sat 04:36:38 PM 34.8986 -103.5675 337° Northwest 401 461 40,000  Level Albuquerque Center
Sat 04:37:38 PM 35.0047 -103.6236 337° Northwest 407 468 40,000  Level Albuquerque Center
Sat 04:38:38 PM 35.1106 -103.6794 337° Northwest 407 468 40,000  Level Albuquerque Center
Sat 04:39:38 PM 35.2167 -103.7358 338° Northwest 407 468 40,000  Level Albuquerque Center
Sat 04:40:38 PM 35.3228 -103.7894 337° Northwest 407 468 40,000  Level Albuquerque Center
Sat 04:41:38 PM 35.4286 -103.8458 337° Northwest 407 468 40,000  Level Albuquerque Center
Sat 04:42:38 PM 35.5347 -103.9025 335° Northwest 407 468 40,000  Level Albuquerque Center
Sat 04:43:38 PM 35.6386 -103.9619 337° Northwest 402 463 40,000  Level Albuquerque Center
Sat 04:44:38 PM 35.7444 -104.0164 336° Northwest 407 468 40,000  Level Albuquerque Center
Sat 04:45:38 PM 35.8483 -104.0733 336° Northwest 398 458 40,000  Level Albuquerque Center
Sat 04:46:38 PM 35.9519 -104.1308 336° Northwest 404 465 40,000  Level Albuquerque Center
Sat 04:47:38 PM 36.0558 -104.1881 337° Northwest 404 465 40,000  Level Albuquerque Center
Sat 04:48:38 PM 36.1594 -104.2431 337° Northwest 404 465 40,000  Level Albuquerque Center
Sat 04:50:47 PM 36.3847 -104.3611 337° Northwest 406 467 40,000  Level Denver Center
Sat 04:51:49 PM 36.4850 -104.4153 336° Northwest 408 470 40,000  Level Denver Center
Sat 04:52:52 PM 36.5858 -104.4711 336° Northwest 410 472 40,000  Level Denver Center
Sat 04:53:54 PM 36.7025 -104.5347 336° Northwest 410 472 40,000  Level Denver Center
Sat 04:54:56 PM 36.8008 -104.5889 336° Northwest 405 466 40,000  Level Denver Center
Sat 04:55:59 PM 36.9161 -104.6525 349° North 404 465 40,000  Level Denver Center
Sat 04:57:01 PM 37.0206 -104.6778 358° North 403 464 40,000  Level Denver Center
Sat 04:58:03 PM 37.1456 -104.6822 359° North 401 461 40,000  Level Denver Center
Sat 04:59:06 PM 37.2506 -104.6844 358° North 395 455 40,000  Level Denver Center
Sat 05:00:08 PM 37.3758 -104.6892 358° North 398 458 40,000  Level Denver Center
Sat 05:01:10 PM 37.4831 -104.6928 359° North 400 460 40,000  Level Denver Center
Sat 05:02:13 PM 37.6069 -104.6964 359° North 396 456 40,000  Level Denver Center
Sat 05:03:15 PM 37.7142 -104.6986 359° North 398 458 40,000 -97 Level Denver Center
Sat 05:04:17 PM 37.8397 -104.7025 358° North 401 461 39,800 -336 Descending Denver Center
Sat 05:05:20 PM 37.9472 -104.7061 359° North 401 461 39,300 -480 Descending Denver Center
Sat 05:06:22 PM 38.0722 -104.7094 359° North 401 461 38,800 -484 Descending Denver Center
Sat 05:07:24 PM 38.1792 -104.7128 359° North 400 460 38,300 -528 Descending Denver Center
Sat 05:08:27 PM 38.3014 -104.7156 North 395 455 37,700 -576 Descending Denver Center
Sat 05:09:29 PM 38.4114 -104.7136 19° North 389 448 37,100 -1,056 Descending Denver Center
Sat 05:10:32 PM 38.5178 -104.6675 13° North 401 461 35,500 -1,728 Descending Denver Center
Sat 05:11:34 PM 38.6247 -104.6358 12° North 394 453 33,500 -1,694 Descending Denver Center
Sat 05:12:36 PM 38.7347 -104.6061 359° North 399 459 32,000 -720 Descending Denver Center
Sat 05:13:39 PM 38.8467 -104.6083 355° North 404 465 32,000  Level Denver Center
Sat 05:14:41 PM 38.9811 -104.6247 354° North 408 470 32,000  Level Denver Center
Sat 05:15:43 PM 39.0936 -104.6397 354° North 403 464 32,000  Level Denver Center
Sat 05:16:46 PM 39.2069 -104.6550 354° North 405 466 32,000  Level Denver Center
Sat 05:17:48 PM 39.3197 -104.6708 354° North 404 465 32,000  Level Denver Center
Sat 05:18:50 PM 39.4331 -104.6856 354° North 406 467 32,000  Level Denver Center
Sat 05:19:53 PM 39.5472 -104.7006 353° North 406 467 32,000  Level Denver Center
Sat 05:20:55 PM 39.6694 -104.7192 355° North 407 468 32,000 -192 Level Denver Center
Sat 05:21:58 PM 39.7828 -104.7331 354° North 405 466 31,600 -720 Descending Denver Center
Sat 05:23:00 PM 39.9150 -104.7511 347° North 406 467 30,500 -960 Descending Denver Center
Sat 05:24:03 PM 40.0253 -104.7836 281° West 406 467 29,600 -864 Descending Denver Center
Sat 05:25:05 PM 40.0453 -104.9239 260° West 413 475 28,700 -768 Descending Denver Center
Sat 05:26:08 PM 40.0253 -105.0711 272° West 427 491 28,000 -528 Descending Denver Center
Sat 05:27:10 PM 40.0283 -105.2206 269° West 409 471 27,600 -484 Descending Denver Center
Sat 05:28:12 PM 40.0261 -105.3997 268° West 419 482 27,000 -624 Descending Denver Center
Sat 05:29:15 PM 40.0228 -105.5506 256° West 416 479 26,300 -480 Descending Denver Center
Sat 05:30:17 PM 39.9956 -105.6931 247° West 406 467 26,000 -576 Descending Denver Center
Sat 05:31:20 PM 39.9525 -105.8253 247° West 394 453 25,100 -1,440 Descending Denver Center
Sat 05:32:22 PM 39.9131 -105.9489 248° West 366 421 23,000 -1,935 Descending Denver Center
Sat 05:33:24 PM 39.8786 -106.0589 248° West 330 380 21,100 -1,968 Descending Denver Center
Sat 05:34:27 PM 39.8422 -106.1733 250° West 306 352 18,900 -1,824 Descending Denver Center
Sat 05:35:29 PM 39.8150 -106.2708 252° West 293 337 17,300 -1,248 Descending Denver Center
Sat 05:36:32 PM 39.7922 -106.3625 240° Southwest 274 315 16,300 -672 Descending Denver Center
Sat 05:37:34 PM 39.7569 -106.4408 238° Southwest 263 303 15,900 -774 Descending Denver Center
Sat 05:38:36 PM 39.7208 -106.5156 243° Southwest 251 289 14,700 -1,488 Descending Denver Center
Sat 05:39:39 PM 39.6914 -106.5903 259° West 198 228 12,800 -1,536 Descending Denver Center
Sat 05:40:41 PM 39.6822 -106.6514 259° West 177 204 11,500 -1,161 Descending Denver Center
Sat 05:41:43 PM 39.6733 -106.7094 257° West 168 193 10,400 -1,104 Descending Denver Center
Sat 05:42:46 PM 39.6642 -106.7608 256° West 153 176 9,200 -1,104 Descending Denver Center
Sat 05:43:48 PM 39.6544 -106.8103 262° West 146 168 8,100 -1,008 Descending Denver Center
Sat 05:44:51 PM 39.6486 -106.8633 262° West 148 170 7,100 -952 Descending Denver Center

Login

Don't have an account? Register now (free) for customized features, flight alerts, and more!